sensor_id;sensor_type;location;lat;lon;timestamp;pressure;altitude;pressure_sealevel;temperature;humidity
72262;BME280;60173;52.112;8.648;2023-04-24T00:01:49;99104.69;;;10.26;79.76
72262;BME280;60173;52.112;8.648;2023-04-24T00:04:15;99106.72;;;10.08;80.90
72262;BME280;60173;52.112;8.648;2023-04-24T00:06:42;99096.56;;;9.96;79.92
72262;BME280;60173;52.112;8.648;2023-04-24T00:09:09;99101.84;;;9.93;79.18
72262;BME280;60173;52.112;8.648;2023-04-24T00:11:36;99112.06;;;9.96;79.33
72262;BME280;60173;52.112;8.648;2023-04-24T00:14:02;99112.00;;;10.05;77.83
72262;BME280;60173;52.112;8.648;2023-04-24T00:16:29;99115.81;;;10.04;77.59
72262;BME280;60173;52.112;8.648;2023-04-24T00:18:55;99112.47;;;10.07;77.53
72262;BME280;60173;52.112;8.648;2023-04-24T00:21:21;99109.28;;;10.05;77.35
72262;BME280;60173;52.112;8.648;2023-04-24T00:23:48;99105.13;;;10.07;77.76
72262;BME280;60173;52.112;8.648;2023-04-24T00:26:14;99098.34;;;10.22;76.35
72262;BME280;60173;52.112;8.648;2023-04-24T00:28:40;99102.03;;;10.17;77.12
72262;BME280;60173;52.112;8.648;2023-04-24T00:31:07;99098.66;;;10.21;76.86
72262;BME280;60173;52.112;8.648;2023-04-24T00:33:33;99096.72;;;10.21;76.67
72262;BME280;60173;52.112;8.648;2023-04-24T00:35:59;99093.81;;;10.05;77.72
72262;BME280;60173;52.112;8.648;2023-04-24T00:38:26;99085.06;;;10.00;78.21
72262;BME280;60173;52.112;8.648;2023-04-24T00:40:52;99095.25;;;10.03;78.51
72262;BME280;60173;52.112;8.648;2023-04-24T00:43:18;99090.53;;;9.91;78.61
72262;BME280;60173;52.112;8.648;2023-04-24T00:45:46;99078.53;;;9.92;79.31
72262;BME280;60173;52.112;8.648;2023-04-24T00:48:12;99085.81;;;9.79;80.03
72262;BME280;60173;52.112;8.648;2023-04-24T00:50:39;99079.84;;;9.86;80.27
72262;BME280;60173;52.112;8.648;2023-04-24T00:53:05;99073.06;;;9.71;80.72
72262;BME280;60173;52.112;8.648;2023-04-24T00:55:32;99070.38;;;9.71;80.87
72262;BME280;60173;52.112;8.648;2023-04-24T00:57:58;99079.22;;;9.50;81.78
72262;BME280;60173;52.112;8.648;2023-04-24T01:00:25;99071.91;;;9.42;82.60
72262;BME280;60173;52.112;8.648;2023-04-24T01:02:52;99069.06;;;9.39;82.06
72262;BME280;60173;52.112;8.648;2023-04-24T01:05:19;99078.34;;;9.29;81.82
72262;BME280;60173;52.112;8.648;2023-04-24T01:07:46;99059.13;;;9.51;78.45
72262;BME280;60173;52.112;8.648;2023-04-24T01:10:13;99064.84;;;9.59;78.37
72262;BME280;60173;52.112;8.648;2023-04-24T01:12:40;99065.59;;;9.68;78.11
72262;BME280;60173;52.112;8.648;2023-04-24T01:15:07;99059.34;;;9.76;77.98
72262;BME280;60173;52.112;8.648;2023-04-24T01:17:34;99061.31;;;9.96;78.08
72262;BME280;60173;52.112;8.648;2023-04-24T01:20:01;99051.94;;;9.85;78.46
72262;BME280;60173;52.112;8.648;2023-04-24T01:22:27;99064.06;;;9.88;78.74
72262;BME280;60173;52.112;8.648;2023-04-24T01:24:53;99048.75;;;9.83;78.92
72262;BME280;60173;52.112;8.648;2023-04-24T01:27:20;99055.50;;;9.77;79.46
72262;BME280;60173;52.112;8.648;2023-04-24T01:29:46;99046.75;;;9.71;79.83
72262;BME280;60173;52.112;8.648;2023-04-24T01:32:13;99048.44;;;9.55;80.46
72262;BME280;60173;52.112;8.648;2023-04-24T01:34:40;99044.47;;;9.53;81.54
72262;BME280;60173;52.112;8.648;2023-04-24T01:37:06;99048.28;;;9.51;81.42
72262;BME280;60173;52.112;8.648;2023-04-24T01:39:32;99047.06;;;9.40;82.07
72262;BME280;60173;52.112;8.648;2023-04-24T01:41:59;99051.50;;;9.45;81.78
72262;BME280;60173;52.112;8.648;2023-04-24T01:44:26;99049.56;;;9.45;82.22
72262;BME280;60173;52.112;8.648;2023-04-24T01:46:54;99043.16;;;9.59;81.98
72262;BME280;60173;52.112;8.648;2023-04-24T01:49:21;99040.34;;;9.46;82.84
72262;BME280;60173;52.112;8.648;2023-04-24T01:51:47;99039.38;;;9.42;82.93
72262;BME280;60173;52.112;8.648;2023-04-24T01:54:14;99047.34;;;9.47;83.19
72262;BME280;60173;52.112;8.648;2023-04-24T01:56:42;99042.53;;;9.53;83.09
72262;BME280;60173;52.112;8.648;2023-04-24T01:59:10;99044.63;;;9.47;83.34
72262;BME280;60173;52.112;8.648;2023-04-24T02:01:37;99041.19;;;9.30;84.34
72262;BME280;60173;52.112;8.648;2023-04-24T02:04:05;99045.38;;;9.18;85.02
72262;BME280;60173;52.112;8.648;2023-04-24T02:06:32;99053.34;;;9.23;85.95
72262;BME280;60173;52.112;8.648;2023-04-24T02:08:58;99046.00;;;9.24;85.83
72262;BME280;60173;52.112;8.648;2023-04-24T02:11:25;99051.56;;;9.19;85.77
72262;BME280;60173;52.112;8.648;2023-04-24T02:13:52;99045.88;;;9.12;85.99
72262;BME280;60173;52.112;8.648;2023-04-24T02:16:19;99053.00;;;9.16;85.88
72262;BME280;60173;52.112;8.648;2023-04-24T02:18:45;99043.31;;;9.07;85.67
72262;BME280;60173;52.112;8.648;2023-04-24T02:21:12;99043.81;;;9.09;85.21
72262;BME280;60173;52.112;8.648;2023-04-24T02:23:38;99047.00;;;9.02;84.88
72262;BME280;60173;52.112;8.648;2023-04-24T02:26:05;99049.06;;;9.05;83.99
72262;BME280;60173;52.112;8.648;2023-04-24T02:28:31;99053.84;;;8.99;83.54
72262;BME280;60173;52.112;8.648;2023-04-24T02:30:58;99050.03;;;9.00;82.86
72262;BME280;60173;52.112;8.648;2023-04-24T02:33:24;99061.16;;;9.08;82.98
72262;BME280;60173;52.112;8.648;2023-04-24T02:35:50;99061.31;;;9.02;82.87
72262;BME280;60173;52.112;8.648;2023-04-24T02:38:16;99055.78;;;8.90;83.54
72262;BME280;60173;52.112;8.648;2023-04-24T02:40:43;99057.84;;;8.85;83.96
72262;BME280;60173;52.112;8.648;2023-04-24T02:43:09;99049.91;;;8.88;83.81
72262;BME280;60173;52.112;8.648;2023-04-24T02:45:35;99053.41;;;8.80;84.11
72262;BME280;60173;52.112;8.648;2023-04-24T02:48:02;99048.78;;;8.89;83.26
72262;BME280;60173;52.112;8.648;2023-04-24T02:50:28;99043.84;;;8.91;82.73
72262;BME280;60173;52.112;8.648;2023-04-24T02:52:54;99038.09;;;8.93;82.55
72262;BME280;60173;52.112;8.648;2023-04-24T02:55:21;99048.63;;;8.94;82.48
72262;BME280;60173;52.112;8.648;2023-04-24T02:57:47;99054.03;;;8.86;83.00
72262;BME280;60173;52.112;8.648;2023-04-24T03:00:14;99044.31;;;8.76;83.09
72262;BME280;60173;52.112;8.648;2023-04-24T03:02:40;99051.66;;;8.84;83.21
72262;BME280;60173;52.112;8.648;2023-04-24T03:05:07;99047.03;;;8.85;82.35
72262;BME280;60173;52.112;8.648;2023-04-24T03:07:33;99048.94;;;8.93;80.80
72262;BME280;60173;52.112;8.648;2023-04-24T03:09:59;99042.06;;;8.95;80.56
72262;BME280;60173;52.112;8.648;2023-04-24T03:12:26;99054.84;;;8.86;80.86
72262;BME280;60173;52.112;8.648;2023-04-24T03:14:52;99055.63;;;8.87;81.19
72262;BME280;60173;52.112;8.648;2023-04-24T03:17:18;99049.41;;;8.86;81.35
72262;BME280;60173;52.112;8.648;2023-04-24T03:19:45;99058.03;;;8.88;81.73
72262;BME280;60173;52.112;8.648;2023-04-24T03:22:11;99057.38;;;8.91;82.20
72262;BME280;60173;52.112;8.648;2023-04-24T03:24:38;99060.22;;;9.03;81.57
72262;BME280;60173;52.112;8.648;2023-04-24T03:27:04;99053.50;;;9.10;81.99
72262;BME280;60173;52.112;8.648;2023-04-24T03:29:30;99050.78;;;9.18;81.62
72262;BME280;60173;52.112;8.648;2023-04-24T03:31:57;99057.59;;;9.33;81.15
72262;BME280;60173;52.112;8.648;2023-04-24T03:34:23;99049.94;;;9.35;81.27
72262;BME280;60173;52.112;8.648;2023-04-24T03:36:49;99049.78;;;9.40;81.02
72262;BME280;60173;52.112;8.648;2023-04-24T03:39:16;99051.97;;;9.47;80.72
72262;BME280;60173;52.112;8.648;2023-04-24T03:41:42;99049.56;;;9.45;81.51
72262;BME280;60173;52.112;8.648;2023-04-24T03:44:08;99049.22;;;9.56;80.43
72262;BME280;60173;52.112;8.648;2023-04-24T03:46:35;99046.00;;;9.62;79.42
72262;BME280;60173;52.112;8.648;2023-04-24T03:49:01;99043.78;;;9.64;79.81
72262;BME280;60173;52.112;8.648;2023-04-24T03:51:27;99035.16;;;9.62;79.78
72262;BME280;60173;52.112;8.648;2023-04-24T03:53:54;99042.63;;;9.65;79.74
72262;BME280;60173;52.112;8.648;2023-04-24T03:56:20;99046.75;;;9.71;79.33
72262;BME280;60173;52.112;8.648;2023-04-24T03:58:46;99044.25;;;9.66;79.61
72262;BME280;60173;52.112;8.648;2023-04-24T04:01:13;99039.03;;;9.53;80.12
72262;BME280;60173;52.112;8.648;2023-04-24T04:03:39;99040.75;;;9.57;80.00
72262;BME280;60173;52.112;8.648;2023-04-24T04:06:06;99041.41;;;9.54;80.29
72262;BME280;60173;52.112;8.648;2023-04-24T04:08:32;99039.22;;;9.47;80.00
72262;BME280;60173;52.112;8.648;2023-04-24T04:10:59;99041.97;;;9.30;79.12
72262;BME280;60173;52.112;8.648;2023-04-24T04:13:25;99042.13;;;9.34;79.85
72262;BME280;60173;52.112;8.648;2023-04-24T04:15:51;99056.19;;;9.27;80.11
72262;BME280;60173;52.112;8.648;2023-04-24T04:18:18;99045.50;;;9.22;80.38
72262;BME280;60173;52.112;8.648;2023-04-24T04:20:44;99046.31;;;9.22;79.71
72262;BME280;60173;52.112;8.648;2023-04-24T04:23:10;99046.31;;;9.22;79.93
72262;BME280;60173;52.112;8.648;2023-04-24T04:25:37;99048.38;;;9.17;79.93
72262;BME280;60173;52.112;8.648;2023-04-24T04:28:03;99046.31;;;9.22;79.88
72262;BME280;60173;52.112;8.648;2023-04-24T04:30:29;99043.16;;;9.20;80.42
72262;BME280;60173;52.112;8.648;2023-04-24T04:32:56;99050.28;;;9.25;79.80
72262;BME280;60173;52.112;8.648;2023-04-24T04:35:22;99044.53;;;9.35;78.61
72262;BME280;60173;52.112;8.648;2023-04-24T04:37:48;99037.16;;;9.44;79.09
72262;BME280;60173;52.112;8.648;2023-04-24T04:40:15;99043.97;;;9.50;78.85
72262;BME280;60173;52.112;8.648;2023-04-24T04:42:41;99055.13;;;9.58;78.37
72262;BME280;60173;52.112;8.648;2023-04-24T04:45:08;99056.88;;;9.54;78.35
72262;BME280;60173;52.112;8.648;2023-04-24T04:47:34;99061.81;;;9.51;78.14
72262;BME280;60173;52.112;8.648;2023-04-24T04:50:01;99049.09;;;9.52;78.03
72262;BME280;60173;52.112;8.648;2023-04-24T04:52:27;99057.88;;;9.49;78.52
72262;BME280;60173;52.112;8.648;2023-04-24T04:54:53;99070.25;;;9.59;78.12
72262;BME280;60173;52.112;8.648;2023-04-24T04:57:20;99075.84;;;9.54;78.50
72262;BME280;60173;52.112;8.648;2023-04-24T04:59:46;99081.63;;;9.52;77.25
72262;BME280;60173;52.112;8.648;2023-04-24T05:02:12;99084.78;;;9.54;77.83
72262;BME280;60173;52.112;8.648;2023-04-24T05:04:39;99091.00;;;9.55;76.77
72262;BME280;60173;52.112;8.648;2023-04-24T05:07:05;99086.88;;;9.48;76.25
72262;BME280;60173;52.112;8.648;2023-04-24T05:09:32;99097.06;;;9.51;75.98
72262;BME280;60173;52.112;8.648;2023-04-24T05:11:58;99098.34;;;9.45;75.99
72262;BME280;60173;52.112;8.648;2023-04-24T05:14:24;99114.66;;;9.28;76.78
72262;BME280;60173;52.112;8.648;2023-04-24T05:16:51;99119.13;;;9.24;77.13
72262;BME280;60173;52.112;8.648;2023-04-24T05:19:17;99112.28;;;9.18;77.08
72262;BME280;60173;52.112;8.648;2023-04-24T05:21:43;99114.03;;;9.14;77.04
72262;BME280;60173;52.112;8.648;2023-04-24T05:24:10;99117.56;;;9.05;77.21
72262;BME280;60173;52.112;8.648;2023-04-24T05:26:36;99118.19;;;9.02;77.47
72262;BME280;60173;52.112;8.648;2023-04-24T05:29:02;99112.94;;;9.15;77.34
72262;BME280;60173;52.112;8.648;2023-04-24T05:31:29;99116.28;;;9.12;78.32
72262;BME280;60173;52.112;8.648;2023-04-24T05:33:55;99119.00;;;9.12;78.11
72262;BME280;60173;52.112;8.648;2023-04-24T05:36:22;99116.94;;;9.09;78.02
72262;BME280;60173;52.112;8.648;2023-04-24T05:38:48;99121.06;;;9.15;77.89
72262;BME280;60173;52.112;8.648;2023-04-24T05:41:15;99126.00;;;9.13;77.98
72262;BME280;60173;52.112;8.648;2023-04-24T05:43:41;99118.03;;;9.16;78.07
72262;BME280;60173;52.112;8.648;2023-04-24T05:46:07;99120.56;;;9.21;77.85
72262;BME280;60173;52.112;8.648;2023-04-24T05:48:34;99132.03;;;9.27;77.68
72262;BME280;60173;52.112;8.648;2023-04-24T05:51:00;99127.91;;;9.21;77.55
72262;BME280;60173;52.112;8.648;2023-04-24T05:53:26;99130.44;;;9.26;78.11
72262;BME280;60173;52.112;8.648;2023-04-24T05:55:53;99128.53;;;9.26;78.38
72262;BME280;60173;52.112;8.648;2023-04-24T05:58:19;99127.56;;;9.31;78.06
72262;BME280;60173;52.112;8.648;2023-04-24T06:00:45;99126.09;;;9.42;77.94
72262;BME280;60173;52.112;8.648;2023-04-24T06:03:12;99119.91;;;9.33;78.13
72262;BME280;60173;52.112;8.648;2023-04-24T06:05:39;99112.59;;;9.25;78.49
72262;BME280;60173;52.112;8.648;2023-04-24T06:08:05;99112.38;;;9.47;78.14
72262;BME280;60173;52.112;8.648;2023-04-24T06:10:31;99111.59;;;9.47;77.82
72262;BME280;60173;52.112;8.648;2023-04-24T06:12:58;99115.22;;;9.51;77.66
72262;BME280;60173;52.112;8.648;2023-04-24T06:15:24;99115.84;;;9.65;77.33
72262;BME280;60173;52.112;8.648;2023-04-24T06:17:50;99118.38;;;9.70;76.95
72262;BME280;60173;52.112;8.648;2023-04-24T06:20:17;99128.25;;;9.75;77.32
72262;BME280;60173;52.112;8.648;2023-04-24T06:22:43;99124.88;;;9.78;76.72
72262;BME280;60173;52.112;8.648;2023-04-24T06:25:09;99128.09;;;9.71;76.57
72262;BME280;60173;52.112;8.648;2023-04-24T06:27:36;99132.38;;;9.81;76.90
72262;BME280;60173;52.112;8.648;2023-04-24T06:30:02;99125.75;;;10.00;76.17
72262;BME280;60173;52.112;8.648;2023-04-24T06:32:29;99131.88;;;9.88;76.92
72262;BME280;60173;52.112;8.648;2023-04-24T06:34:55;99123.75;;;9.79;76.20
72262;BME280;60173;52.112;8.648;2023-04-24T06:37:24;99135.44;;;9.71;77.19
72262;BME280;60173;52.112;8.648;2023-04-24T06:39:50;99127.28;;;9.71;76.59
72262;BME280;60173;52.112;8.648;2023-04-24T06:42:17;99129.03;;;9.76;76.07
72262;BME280;60173;52.112;8.648;2023-04-24T06:44:43;99136.25;;;9.63;76.39
72262;BME280;60173;52.112;8.648;2023-04-24T06:47:10;99143.44;;;9.59;77.21
72262;BME280;60173;52.112;8.648;2023-04-24T06:49:37;99139.28;;;9.61;77.21
72262;BME280;60173;52.112;8.648;2023-04-24T06:52:04;99137.22;;;9.67;76.39
72262;BME280;60173;52.112;8.648;2023-04-24T06:54:30;99134.03;;;9.65;76.55
72262;BME280;60173;52.112;8.648;2023-04-24T06:56:56;99135.16;;;9.64;76.89
72262;BME280;60173;52.112;8.648;2023-04-24T06:59:24;99135.44;;;9.71;76.08
72262;BME280;60173;52.112;8.648;2023-04-24T07:01:50;99141.97;;;9.70;76.72
72262;BME280;60173;52.112;8.648;2023-04-24T07:04:20;99141.81;;;9.75;76.34
72262;BME280;60173;52.112;8.648;2023-04-24T07:06:47;99151.25;;;9.51;75.93
72262;BME280;60173;52.112;8.648;2023-04-24T07:09:13;99145.84;;;9.51;76.33
72262;BME280;60173;52.112;8.648;2023-04-24T07:11:40;99143.09;;;9.60;76.05
72262;BME280;60173;52.112;8.648;2023-04-24T07:14:07;99143.63;;;9.54;75.81
72262;BME280;60173;52.112;8.648;2023-04-24T07:16:33;99144.72;;;9.61;75.39
72262;BME280;60173;52.112;8.648;2023-04-24T07:18:59;99142.97;;;9.57;76.18
72262;BME280;60173;52.112;8.648;2023-04-24T07:21:26;99140.41;;;9.60;75.83
72262;BME280;60173;52.112;8.648;2023-04-24T07:23:52;99148.69;;;9.64;75.59
72262;BME280;60173;52.112;8.648;2023-04-24T07:26:19;99150.59;;;9.72;75.07
72262;BME280;60173;52.112;8.648;2023-04-24T07:28:46;99148.19;;;9.70;75.72
72262;BME280;60173;52.112;8.648;2023-04-24T07:31:13;99153.09;;;9.77;76.07
72262;BME280;60173;52.112;8.648;2023-04-24T07:33:39;99155.13;;;9.89;74.07
72262;BME280;60173;52.112;8.648;2023-04-24T07:36:05;99155.47;;;9.87;74.08
72262;BME280;60173;52.112;8.648;2023-04-24T07:38:32;99157.84;;;9.89;73.77
72262;BME280;60173;52.112;8.648;2023-04-24T07:40:58;99150.19;;;9.91;73.39
72262;BME280;60173;52.112;8.648;2023-04-24T07:43:25;99151.75;;;10.01;73.91
72262;BME280;60173;52.112;8.648;2023-04-24T07:45:51;99163.06;;;10.03;73.42
72262;BME280;60173;52.112;8.648;2023-04-24T07:48:17;99149.59;;;10.15;72.10
72262;BME280;60173;52.112;8.648;2023-04-24T07:50:44;99158.03;;;10.22;72.26
72262;BME280;60173;52.112;8.648;2023-04-24T07:53:11;99160.22;;;10.37;72.61
72262;BME280;60173;52.112;8.648;2023-04-24T07:55:37;99156.13;;;10.52;71.05
72262;BME280;60173;52.112;8.648;2023-04-24T07:58:03;99160.41;;;10.62;70.21
72262;BME280;60173;52.112;8.648;2023-04-24T08:00:30;99152.16;;;10.50;69.58
72262;BME280;60173;52.112;8.648;2023-04-24T08:02:56;99164.97;;;10.40;70.56
72262;BME280;60173;52.112;8.648;2023-04-24T08:05:23;99162.81;;;10.25;71.30
72262;BME280;60173;52.112;8.648;2023-04-24T08:07:49;99164.91;;;10.28;70.92
72262;BME280;60173;52.112;8.648;2023-04-24T08:10:16;99168.75;;;10.27;71.67
72262;BME280;60173;52.112;8.648;2023-04-24T08:12:42;99164.28;;;10.14;71.30
72262;BME280;60173;52.112;8.648;2023-04-24T08:15:09;99181.09;;;10.07;71.78
72262;BME280;60173;52.112;8.648;2023-04-24T08:17:35;99177.59;;;10.07;71.64
72262;BME280;60173;52.112;8.648;2023-04-24T08:20:05;99161.16;;;10.03;71.77
72262;BME280;60173;52.112;8.648;2023-04-24T08:22:31;99178.88;;;10.01;71.63
72262;BME280;60173;52.112;8.648;2023-04-24T08:24:59;99181.78;;;9.95;72.15
72262;BME280;60173;52.112;8.648;2023-04-24T08:27:26;99184.59;;;10.08;72.48
72262;BME280;60173;52.112;8.648;2023-04-24T08:29:53;99184.19;;;10.27;71.78
72262;BME280;60173;52.112;8.648;2023-04-24T08:32:19;99181.97;;;10.20;71.96
72262;BME280;60173;52.112;8.648;2023-04-24T08:34:46;99185.38;;;10.08;71.45
72262;BME280;60173;52.112;8.648;2023-04-24T08:37:14;99179.03;;;10.04;71.59
72262;BME280;60173;52.112;8.648;2023-04-24T08:39:41;99185.53;;;10.12;72.39
72262;BME280;60173;52.112;8.648;2023-04-24T08:42:08;99189.06;;;10.04;72.33
72262;BME280;60173;52.112;8.648;2023-04-24T08:44:35;99178.06;;;10.00;72.37
72262;BME280;60173;52.112;8.648;2023-04-24T08:47:02;99192.91;;;10.03;72.20
72262;BME280;60173;52.112;8.648;2023-04-24T08:49:29;99193.31;;;10.22;71.53
72262;BME280;60173;52.112;8.648;2023-04-24T08:51:56;99186.34;;;10.72;70.29
72262;BME280;60173;52.112;8.648;2023-04-24T08:54:23;99185.44;;;11.09;68.26
72262;BME280;60173;52.112;8.648;2023-04-24T08:56:50;99171.44;;;11.53;67.23
72262;BME280;60173;52.112;8.648;2023-04-24T08:59:17;99176.81;;;12.32;66.14
72262;BME280;60173;52.112;8.648;2023-04-24T09:01:45;99170.19;;;12.70;64.24
72262;BME280;60173;52.112;8.648;2023-04-24T09:04:14;99179.31;;;12.25;64.71
72262;BME280;60173;52.112;8.648;2023-04-24T09:06:42;99175.63;;;11.84;64.73
72262;BME280;60173;52.112;8.648;2023-04-24T09:09:10;99182.69;;;11.30;66.10
72262;BME280;60173;52.112;8.648;2023-04-24T09:11:37;99181.44;;;11.28;66.72
72262;BME280;60173;52.112;8.648;2023-04-24T09:14:03;99184.44;;;10.93;67.55
72262;BME280;60173;52.112;8.648;2023-04-24T09:16:30;99184.00;;;10.61;68.87
72262;BME280;60173;52.112;8.648;2023-04-24T09:19:00;99184.16;;;10.35;69.03
72262;BME280;60173;52.112;8.648;2023-04-24T09:21:35;99187.22;;;10.34;69.35
72262;BME280;60173;52.112;8.648;2023-04-24T09:24:04;99200.31;;;10.23;69.75
72262;BME280;60173;52.112;8.648;2023-04-24T09:26:32;99194.13;;;10.14;70.08
72262;BME280;60173;52.112;8.648;2023-04-24T09:28:59;99197.78;;;10.18;70.55
72262;BME280;60173;52.112;8.648;2023-04-24T09:31:27;99196.25;;;10.00;71.08
72262;BME280;60173;52.112;8.648;2023-04-24T09:33:59;99196.09;;;10.05;70.24
72262;BME280;60173;52.112;8.648;2023-04-24T09:36:29;99196.69;;;10.19;70.24
72262;BME280;60173;52.112;8.648;2023-04-24T09:39:00;99203.81;;;10.24;70.45
72262;BME280;60173;52.112;8.648;2023-04-24T09:41:28;99195.28;;;10.13;70.26
72262;BME280;60173;52.112;8.648;2023-04-24T09:43:55;99203.03;;;10.23;69.96
72262;BME280;60173;52.112;8.648;2023-04-24T09:46:29;99191.75;;;10.12;71.12
72262;BME280;60173;52.112;8.648;2023-04-24T09:48:55;99197.03;;;10.09;70.82
72262;BME280;60173;52.112;8.648;2023-04-24T09:51:35;99209.34;;;9.98;70.93
72262;BME280;60173;52.112;8.648;2023-04-24T09:54:03;99206.00;;;10.01;70.54
72262;BME280;60173;52.112;8.648;2023-04-24T09:56:33;99216.03;;;10.00;71.17
72262;BME280;60173;52.112;8.648;2023-04-24T09:59:06;99219.50;;;10.18;71.30
72262;BME280;60173;52.112;8.648;2023-04-24T10:01:33;99214.88;;;10.27;69.68
72262;BME280;60173;52.112;8.648;2023-04-24T10:04:00;99218.16;;;10.42;69.90
72262;BME280;60173;52.112;8.648;2023-04-24T10:06:33;99217.38;;;10.32;70.35
72262;BME280;60173;52.112;8.648;2023-04-24T10:09:00;99218.34;;;10.36;69.52
72262;BME280;60173;52.112;8.648;2023-04-24T10:11:27;99219.25;;;10.40;69.13
72262;BME280;60173;52.112;8.648;2023-04-24T10:13:54;99214.66;;;10.32;70.68
72262;BME280;60173;52.112;8.648;2023-04-24T10:16:21;99213.75;;;10.28;70.46
72262;BME280;60173;52.112;8.648;2023-04-24T10:18:48;99224.16;;;10.09;71.61
72262;BME280;60173;52.112;8.648;2023-04-24T10:21:16;99220.06;;;10.41;72.14
72262;BME280;60173;52.112;8.648;2023-04-24T10:23:43;99220.38;;;10.69;70.52
72262;BME280;60173;52.112;8.648;2023-04-24T10:26:09;99225.81;;;10.69;71.03
72262;BME280;60173;52.112;8.648;2023-04-24T10:28:36;99234.03;;;10.13;71.25
72262;BME280;60173;52.112;8.648;2023-04-24T10:31:03;99229.84;;;10.25;71.19
72262;BME280;60173;52.112;8.648;2023-04-24T10:33:30;99240.59;;;10.04;71.58
72262;BME280;60173;52.112;8.648;2023-04-24T10:35:57;99243.03;;;9.96;72.18
72262;BME280;60173;52.112;8.648;2023-04-24T10:38:28;99244.47;;;10.41;71.64
72262;BME280;60173;52.112;8.648;2023-04-24T10:41:09;99248.63;;;10.77;69.99
72262;BME280;60173;52.112;8.648;2023-04-24T10:43:35;99244.53;;;10.92;69.60
72262;BME280;60173;52.112;8.648;2023-04-24T10:46:03;99246.47;;;10.61;69.47
72262;BME280;60173;52.112;8.648;2023-04-24T10:48:30;99255.88;;;10.64;69.49
72262;BME280;60173;52.112;8.648;2023-04-24T10:50:57;99252.72;;;10.62;69.59
72262;BME280;60173;52.112;8.648;2023-04-24T10:53:27;99260.63;;;10.37;70.92
72262;BME280;60173;52.112;8.648;2023-04-24T10:56:00;99262.53;;;9.81;73.06
72262;BME280;60173;52.112;8.648;2023-04-24T10:58:59;99273.06;;;9.65;74.39
72262;BME280;60173;52.112;8.648;2023-04-24T11:01:27;99274.19;;;9.64;75.42
72262;BME280;60173;52.112;8.648;2023-04-24T11:03:56;99280.72;;;9.72;76.34
72262;BME280;60173;52.112;8.648;2023-04-24T11:06:29;99286.44;;;9.96;75.81
72262;BME280;60173;52.112;8.648;2023-04-24T11:09:02;99285.44;;;10.27;75.38
72262;BME280;60173;52.112;8.648;2023-04-24T11:11:29;99289.19;;;10.44;75.21
72262;BME280;60173;52.112;8.648;2023-04-24T11:22:01;99292.38;;;10.46;75.63
72262;BME280;60173;52.112;8.648;2023-04-24T11:24:37;99308.13;;;9.96;76.17
72262;BME280;60173;52.112;8.648;2023-04-24T11:37:36;99325.72;;;10.55;75.32
72262;BME280;60173;52.112;8.648;2023-04-24T11:40:07;99322.66;;;10.65;75.29
72262;BME280;60173;52.112;8.648;2023-04-24T11:42:35;99324.03;;;10.42;76.15
72262;BME280;60173;52.112;8.648;2023-04-24T11:45:07;99332.31;;;10.36;76.78
72262;BME280;60173;52.112;8.648;2023-04-24T11:47:35;99334.94;;;9.89;77.48
72262;BME280;60173;52.112;8.648;2023-04-24T11:50:03;99344.19;;;9.88;77.94
72262;BME280;60173;52.112;8.648;2023-04-24T11:52:30;99358.38;;;9.77;79.31
72262;BME280;60173;52.112;8.648;2023-04-24T11:54:57;99360.38;;;9.19;80.32
72262;BME280;60173;52.112;8.648;2023-04-24T11:57:25;99371.84;;;9.16;80.26
72262;BME280;60173;52.112;8.648;2023-04-24T11:59:51;99381.44;;;9.31;81.44
72262;BME280;60173;52.112;8.648;2023-04-24T12:02:25;99380.72;;;9.65;79.93
72262;BME280;60173;52.112;8.648;2023-04-24T12:04:53;99375.63;;;9.81;79.37
72262;BME280;60173;52.112;8.648;2023-04-24T12:07:21;99390.63;;;9.78;79.42
72262;BME280;60173;52.112;8.648;2023-04-24T12:09:49;99386.47;;;9.98;78.49
72262;BME280;60173;52.112;8.648;2023-04-24T12:12:18;99396.34;;;9.77;79.82
72262;BME280;60173;52.112;8.648;2023-04-24T12:14:48;99411.47;;;9.69;80.21
72262;BME280;60173;52.112;8.648;2023-04-24T12:17:16;99413.72;;;9.49;81.40
72262;BME280;60173;52.112;8.648;2023-04-24T12:19:47;99415.78;;;9.61;81.54
72262;BME280;60173;52.112;8.648;2023-04-24T12:22:14;99426.47;;;9.49;82.19
72262;BME280;60173;52.112;8.648;2023-04-24T12:25:00;99424.00;;;9.30;82.54
72262;BME280;60173;52.112;8.648;2023-04-24T12:27:31;99419.06;;;9.23;83.04
72262;BME280;60173;52.112;8.648;2023-04-24T12:30:00;99436.97;;;9.02;85.40
72262;BME280;60173;52.112;8.648;2023-04-24T12:32:27;99438.38;;;8.99;86.72
72262;BME280;60173;52.112;8.648;2023-04-24T12:34:54;99435.34;;;8.92;86.73
72262;BME280;60173;52.112;8.648;2023-04-24T12:37:25;99439.53;;;9.07;85.80
72262;BME280;60173;52.112;8.648;2023-04-24T12:40:11;99443.41;;;9.15;84.88
72262;BME280;60173;52.112;8.648;2023-04-24T12:42:47;99452.03;;;9.25;86.26
72262;BME280;60173;52.112;8.648;2023-04-24T12:45:15;99455.22;;;9.19;86.37
72262;BME280;60173;52.112;8.648;2023-04-24T12:47:43;99460.97;;;9.17;85.58
72262;BME280;60173;52.112;8.648;2023-04-24T12:50:12;99471.25;;;9.07;86.04
72262;BME280;60173;52.112;8.648;2023-04-24T12:52:39;99468.41;;;9.12;87.56
72262;BME280;60173;52.112;8.648;2023-04-24T12:55:06;99468.81;;;9.36;86.72
72262;BME280;60173;52.112;8.648;2023-04-24T12:57:34;99477.75;;;9.45;86.84
72262;BME280;60173;52.112;8.648;2023-04-24T13:00:01;99473.34;;;9.49;86.82
72262;BME280;60173;52.112;8.648;2023-04-24T13:02:29;99483.72;;;9.65;85.67
72262;BME280;60173;52.112;8.648;2023-04-24T13:04:55;99480.91;;;9.79;85.43
72262;BME280;60173;52.112;8.648;2023-04-24T13:07:22;99486.94;;;9.67;85.76
72262;BME280;60173;52.112;8.648;2023-04-24T13:09:50;99489.75;;;9.53;86.73
72262;BME280;60173;52.112;8.648;2023-04-24T13:12:18;99496.56;;;9.42;88.42
72262;BME280;60173;52.112;8.648;2023-04-24T13:14:44;99497.31;;;9.25;89.06
72262;BME280;60173;52.112;8.648;2023-04-24T13:17:11;99502.75;;;9.34;89.51
72262;BME280;60173;52.112;8.648;2023-04-24T13:19:39;99506.06;;;9.22;89.69
72262;BME280;60173;52.112;8.648;2023-04-24T13:22:06;99514.69;;;9.24;90.03
72262;BME280;60173;52.112;8.648;2023-04-24T13:24:33;99516.72;;;9.18;90.55
72262;BME280;60173;52.112;8.648;2023-04-24T13:26:59;99520.44;;;9.31;88.42